createdAt,value
2022-10-24T00:39:53.019Z,95021.44
2022-10-24T00:45:55.249Z,95004.19
2022-10-24T00:48:27.141Z,95006.38
2022-10-24T00:50:57.665Z,94992.38
2022-10-24T01:31:43.319Z,94915.28
2022-10-24T01:34:29.223Z,94911.16
2022-10-24T01:37:02.668Z,94907.88
2022-10-24T01:40:14.300Z,94918.53
2022-10-24T01:42:17.425Z,94938.88
2022-10-24T01:42:54.942Z,94910.31
2022-10-24T01:45:28.125Z,94884.28
2022-10-24T01:47:58.048Z,94846.53
2022-10-24T01:50:39.117Z,94840.22
2022-10-24T01:53:09.254Z,94824.63
2022-10-24T01:55:38.015Z,94819.16
2022-10-24T02:02:16.944Z,94835.31
2022-10-24T02:44:57.453Z,94807.94
2022-10-24T04:02:35.605Z,94842.69
2022-10-24T04:05:06.461Z,94847.34
2022-10-24T04:07:34.660Z,94854.22
2022-10-24T04:10:02.588Z,94857.50
2022-10-24T04:12:30.866Z,94853.63
2022-10-24T04:15:02.421Z,94864.31
2022-10-24T04:17:32.756Z,94858.28
2022-10-24T04:20:00.600Z,94856.38
2022-10-24T04:22:29.944Z,94854.19
2022-10-24T04:25:00.867Z,94852.00
2022-10-24T04:27:28.817Z,94865.13
2022-10-24T17:02:45.661Z,94987.97
2022-10-24T17:05:14.193Z,94978.66
2022-10-24T17:07:42.298Z,94988.22
2022-10-24T17:10:11.654Z,95003.25
2022-10-24T17:12:39.729Z,95014.75
2022-10-24T17:15:08.704Z,95015.84
2022-10-24T17:17:36.672Z,95011.97
2022-10-24T17:20:09.148Z,95016.88
2022-10-24T17:22:38.034Z,95004.81
2022-10-24T17:25:06.604Z,95004.03
2022-10-24T17:27:34.733Z,95004.81
2022-10-24T17:30:02.766Z,95012.47
2022-10-24T17:32:32.905Z,95002.66
2022-10-24T17:35:01.185Z,95008.09
2022-10-24T17:37:39.874Z,95002.13
2022-10-24T17:40:14.276Z,94996.41
2022-10-24T17:42:43.343Z,95002.69
2022-10-24T17:45:15.253Z,95007.09
2022-10-24T17:47:43.535Z,95007.34
2022-10-24T17:50:11.736Z,95014.69
2022-10-24T17:52:42.603Z,95007.59
2022-10-24T17:55:27.808Z,94998.81
2022-10-24T17:58:05.582Z,94997.75
2022-10-24T18:00:33.448Z,94989.00
2022-10-24T18:03:01.347Z,94991.41
2022-10-24T18:05:29.937Z,94982.72
2022-10-24T18:07:58.972Z,94999.09
2022-10-24T18:10:27.042Z,95002.41
2022-10-24T18:12:54.857Z,95004.56
2022-10-24T18:15:22.725Z,94991.72
2022-10-24T18:17:50.654Z,94998.81
2022-10-24T18:20:19.124Z,94988.44
2022-10-24T18:22:46.949Z,94984.03
2022-10-24T18:25:20.301Z,94988.69
2022-10-24T18:27:50.977Z,94994.66
2022-10-24T18:30:19.690Z,94992.19
2022-10-24T18:32:47.945Z,94984.25
2022-10-24T18:35:16.369Z,94977.47
2022-10-24T18:37:44.177Z,94979.59
2022-10-24T18:40:13.277Z,94976.81
2022-10-24T18:42:48.932Z,94985.53
2022-10-24T18:45:20.198Z,94994.31
2022-10-24T18:47:48.658Z,94997.81
2022-10-24T18:50:18.713Z,94993.16
2022-10-24T18:52:51.519Z,94992.41
2022-10-24T18:55:21.322Z,94988.00
2022-10-24T18:57:51.438Z,94974.94
2022-10-24T19:00:21.929Z,94973.28
2022-10-24T19:02:55.722Z,94968.63
2022-10-24T19:05:25.471Z,94972.47
2022-10-24T19:07:53.640Z,94979.00
2022-10-24T19:10:24.142Z,94962.63
2022-10-24T19:12:54.274Z,94962.63
2022-10-24T19:15:22.933Z,94959.88
2022-10-24T19:17:52.042Z,94968.34
2022-10-24T19:20:21.428Z,94975.44
2022-10-24T19:22:49.570Z,94979.25
2022-10-24T19:25:18.127Z,94979.25
2022-10-24T19:27:45.943Z,94985.78
2022-10-24T19:30:15.540Z,94978.44
2022-10-24T19:32:43.301Z,94977.09
2022-10-24T19:35:11.076Z,94970.56
2022-10-24T19:37:38.869Z,94968.63
2022-10-24T19:40:07.967Z,94964.28
2022-10-24T19:42:35.677Z,94970.75
2022-10-24T19:45:05.223Z,94956.03
2022-10-24T19:47:34.685Z,94954.63
2022-10-24T19:50:02.309Z,94970.72
2022-10-24T19:52:30.018Z,94967.41
2022-10-24T19:54:57.676Z,94971.72
2022-10-24T19:57:25.488Z,94969.50
2022-10-24T19:59:53.832Z,94968.91
2022-10-24T20:02:22.129Z,94964.19
2022-10-24T20:04:51.114Z,94975.38
2022-10-24T20:07:18.768Z,94977.03
2022-10-24T20:09:46.465Z,94977.28
2022-10-24T20:12:14.354Z,94979.44
2022-10-24T20:14:42.022Z,94991.19
2022-10-24T20:17:09.801Z,94986.53
2022-10-24T20:19:37.509Z,94982.44
2022-10-24T20:22:06.567Z,94993.59
2022-10-24T20:24:34.309Z,94987.84
2022-10-24T20:27:02.476Z,94979.91
2022-10-24T20:29:30.235Z,94984.53
2022-10-24T20:31:57.943Z,94987.28
2022-10-24T20:34:25.593Z,94984.53
2022-10-24T20:36:53.228Z,94988.59
2022-10-24T20:39:22.284Z,94988.75
2022-10-24T20:41:53.228Z,94992.53
2022-10-24T20:44:22.079Z,95002.53
2022-10-24T20:46:49.879Z,94995.09
2022-10-24T20:49:17.571Z,95012.28
2022-10-24T20:51:45.263Z,95013.88
2022-10-24T20:54:12.902Z,95019.56
2022-10-24T20:56:42.761Z,95013.31
2022-10-24T20:59:12.690Z,95028.81
2022-10-24T21:01:40.468Z,95019.50
2022-10-24T21:04:08.519Z,95018.69
2022-10-24T21:06:36.208Z,95035.38
2022-10-24T21:09:06.252Z,95028.81
2022-10-24T21:11:34.806Z,95018.75
2022-10-24T21:14:05.685Z,95018.75
2022-10-24T21:16:34.383Z,95014.13
2022-10-24T21:19:02.220Z,95017.09
2022-10-24T21:21:30.435Z,95025.84
2022-10-24T21:24:02.609Z,95029.41
2022-10-24T21:26:34.554Z,95025.84
2022-10-24T21:29:15.079Z,95035.38
2022-10-24T21:31:49.949Z,95035.94
2022-10-24T21:34:18.166Z,95040.91
2022-10-24T21:36:46.151Z,95044.69
2022-10-24T21:39:14.550Z,95043.63
2022-10-24T21:41:42.381Z,95046.91
2022-10-24T21:44:11.452Z,95043.13
2022-10-24T21:46:39.129Z,95045.34
2022-10-24T21:49:06.836Z,95053.28
2022-10-24T21:51:36.446Z,95060.94
2022-10-24T21:54:06.967Z,95054.16
2022-10-24T21:56:36.718Z,95067.06
2022-10-24T21:59:06.321Z,95069.31
2022-10-24T22:01:37.037Z,95074.78
2022-10-24T22:04:06.593Z,95075.34
2022-10-24T22:06:35.793Z,95079.44
2022-10-24T22:09:04.834Z,95085.22
2022-10-24T22:11:33.949Z,95093.75
2022-10-24T22:14:02.009Z,95083.66
2022-10-24T22:16:31.317Z,95091.84
2022-10-24T22:19:02.674Z,95093.75
2022-10-24T22:21:32.268Z,95089.38
2022-10-24T22:24:01.418Z,95090.69
2022-10-24T22:26:29.663Z,95106.16
2022-10-24T22:28:57.463Z,95093.88
2022-10-24T22:31:25.996Z,95102.53
2022-10-24T22:33:54.163Z,95114.13
2022-10-24T22:36:29.906Z,95113.97
2022-10-24T22:38:58.367Z,95116.63
2022-10-24T22:41:26.881Z,95121.72
2022-10-24T22:43:54.987Z,95142.56
2022-10-24T22:46:35.594Z,95140.91
2022-10-24T22:49:06.720Z,95145.13
2022-10-24T22:51:36.658Z,95153.81
2022-10-24T22:54:04.955Z,95147.22
2022-10-24T22:56:36.695Z,95149.31
2022-10-24T22:59:04.804Z,95149.50
2022-10-24T23:01:41.290Z,95152.13
2022-10-24T23:04:18.419Z,95147.69
2022-10-24T23:06:52.309Z,95144.03
2022-10-24T23:09:20.026Z,95145.09
2022-10-24T23:11:48.127Z,95146.09
2022-10-24T23:16:46.891Z,95153.06
2022-10-24T23:19:19.983Z,95155.69
2022-10-24T23:21:52.797Z,95157.41
2022-10-24T23:24:20.743Z,95158.38
2022-10-24T23:26:59.611Z,95161.34
2022-10-24T23:29:31.429Z,95165.16
2022-10-24T23:31:59.837Z,95163.50
2022-10-24T23:34:28.493Z,95158.28
2022-10-24T23:37:00.818Z,95164.78
2022-10-24T23:39:31.497Z,95169.22
2022-10-24T23:41:59.771Z,95171.59
2022-10-24T23:44:28.089Z,95166.63
2022-10-24T23:47:00.557Z,95165.72
2022-10-24T23:49:34.047Z,95169.50
2022-10-24T23:52:09.269Z,95160.50
2022-10-24T23:54:37.635Z,95161.00
2022-10-24T23:57:14.876Z,95168.22
2022-10-24T23:59:42.720Z,95164.53
